createdAt,value
2023-05-01T00:03:19.725Z,6.70
2023-05-01T00:08:23.028Z,5.90
2023-05-01T00:13:26.668Z,6.33
2023-05-01T00:18:32.479Z,11.07
2023-05-01T00:23:35.955Z,15.90
2023-05-01T00:28:39.250Z,5.73
2023-05-01T00:33:44.002Z,5.80
2023-05-01T00:38:47.462Z,4.63
2023-05-01T00:43:50.930Z,4.83
2023-05-01T00:48:55.861Z,4.60
2023-05-01T00:54:00.838Z,4.50
2023-05-01T00:59:05.063Z,3.80
2023-05-01T01:04:09.813Z,4.10
2023-05-01T01:09:19.084Z,5.20
2023-05-01T01:14:26.922Z,4.40
2023-05-01T01:19:43.945Z,4.57
2023-05-01T01:24:51.397Z,5.03
2023-05-01T01:30:08.393Z,4.77
2023-05-01T01:35:19.417Z,4.80
2023-05-01T01:40:25.203Z,5.30
2023-05-01T01:45:32.003Z,5.13
2023-05-01T01:50:39.274Z,4.70
2023-05-01T01:55:44.771Z,5.53
2023-05-01T02:00:48.222Z,4.80
2023-05-01T02:05:54.545Z,5.27
2023-05-01T02:11:01.736Z,4.87
2023-05-01T02:16:06.517Z,5.07
2023-05-01T02:21:12.384Z,4.93
2023-05-01T02:26:17.558Z,4.90
2023-05-01T02:31:20.919Z,4.37
2023-05-01T02:36:27.890Z,4.33
2023-05-01T02:41:32.416Z,4.47
2023-05-01T02:46:37.470Z,4.60
2023-05-01T02:51:42.666Z,4.07
2023-05-01T02:56:46.012Z,4.90
2023-05-01T03:01:49.357Z,4.67
2023-05-01T03:06:54.467Z,4.57
2023-05-01T03:11:57.846Z,4.23
2023-05-01T03:17:01.230Z,4.77
2023-05-01T03:22:06.017Z,3.77
2023-05-01T03:27:09.449Z,3.70
2023-05-01T03:32:12.852Z,3.70
2023-05-01T03:37:17.639Z,3.93
2023-05-01T03:42:21.113Z,4.13
2023-05-01T03:47:25.787Z,4.47
2023-05-01T03:52:30.616Z,4.60
2023-05-01T03:57:34.859Z,3.97
2023-05-01T04:02:38.299Z,4.07
2023-05-01T04:07:43.335Z,4.03
2023-05-01T04:12:46.920Z,4.17
2023-05-01T04:17:51.151Z,4.40
2023-05-01T04:22:56.402Z,4.17
2023-05-01T04:28:00.343Z,4.57
2023-05-01T04:33:04.140Z,4.07
2023-05-01T04:38:10.532Z,5.00
2023-05-01T04:43:14.970Z,4.47
2023-05-01T04:48:20.755Z,4.97
2023-05-01T04:53:25.411Z,4.17
2023-05-01T04:58:28.848Z,4.30
2023-05-01T05:03:36.574Z,4.57
2023-05-01T05:08:41.551Z,4.30
2023-05-01T05:13:46.566Z,4.17
2023-05-01T05:18:50.000Z,5.37
2023-05-01T05:23:56.137Z,5.23
2023-05-01T05:28:59.786Z,5.30
2023-05-01T05:34:03.758Z,6.67
2023-05-01T05:39:08.545Z,4.73
2023-05-01T05:44:12.120Z,5.37
2023-05-01T05:49:15.849Z,7.17
2023-05-01T05:54:21.477Z,6.13
2023-05-01T05:59:25.723Z,7.37
2023-05-01T06:04:29.160Z,7.03
2023-05-01T06:09:34.041Z,5.73
2023-05-01T06:14:37.292Z,5.93
2023-05-01T06:19:41.549Z,6.10
2023-05-01T06:24:48.436Z,6.00
2023-05-01T06:29:52.060Z,6.37
2023-05-01T06:34:55.363Z,5.90
2023-05-01T06:40:01.433Z,6.40
2023-05-01T06:45:04.956Z,5.97
2023-05-01T06:50:09.620Z,6.80
2023-05-01T06:55:14.232Z,6.37
2023-05-01T07:00:18.582Z,7.07
2023-05-01T07:05:22.486Z,7.40
2023-05-01T07:10:27.350Z,6.80
2023-05-01T07:15:30.641Z,6.70
2023-05-01T07:20:34.729Z,6.70
2023-05-01T07:25:41.441Z,8.57
2023-05-01T07:30:44.734Z,7.80
2023-05-01T07:35:48.239Z,14.27
2023-05-01T07:40:55.021Z,8.93
2023-05-01T07:45:59.060Z,7.60
2023-05-01T07:51:03.559Z,8.13
2023-05-01T07:56:10.261Z,10.40
2023-05-01T08:01:13.703Z,8.33
2023-05-01T08:06:17.207Z,9.67
2023-05-01T08:11:22.079Z,6.77
2023-05-01T08:16:25.624Z,7.87
2023-05-01T08:21:28.934Z,7.00
2023-05-01T08:26:33.778Z,7.10
2023-05-01T08:31:38.025Z,7.77
2023-05-01T08:36:41.195Z,7.00
2023-05-01T08:41:47.211Z,7.43
2023-05-01T08:46:54.841Z,7.00
2023-05-01T08:51:58.206Z,8.40
2023-05-01T08:57:04.586Z,7.63
2023-05-01T09:02:09.346Z,7.47
2023-05-01T09:07:12.941Z,7.43
2023-05-01T09:12:23.179Z,7.77
2023-05-01T09:17:26.495Z,7.57
2023-05-01T09:22:31.569Z,7.10
2023-05-01T09:27:36.769Z,6.97
2023-05-01T09:32:42.421Z,7.20
2023-05-01T09:37:50.633Z,7.20
2023-05-01T09:42:56.140Z,7.10
2023-05-01T09:48:10.829Z,7.77
2023-05-01T09:53:14.248Z,7.50
2023-05-01T09:58:29.192Z,7.90
2023-05-01T10:03:33.023Z,8.00
2023-05-01T10:08:46.470Z,7.27
2023-05-01T10:14:06.580Z,8.30
2023-05-01T10:19:11.265Z,8.23
2023-05-01T10:24:16.360Z,7.40
2023-05-01T10:29:23.439Z,6.53
2023-05-01T10:34:28.387Z,7.10
2023-05-01T10:39:32.322Z,7.20
2023-05-01T10:44:37.160Z,7.50
2023-05-01T10:49:59.496Z,7.43
2023-05-01T10:55:19.125Z,7.03
2023-05-01T11:00:24.065Z,7.00
2023-05-01T11:05:42.398Z,6.20
2023-05-01T11:10:45.728Z,6.47
2023-05-01T11:15:50.686Z,6.30
2023-05-01T11:20:53.993Z,6.63
2023-05-01T11:26:05.888Z,6.20
2023-05-01T11:31:11.606Z,6.00
2023-05-01T11:36:15.267Z,6.07
2023-05-01T11:41:21.096Z,6.20
2023-05-01T11:46:29.425Z,7.17
2023-05-01T11:51:33.350Z,5.67
2023-05-01T11:56:37.224Z,5.60
2023-05-01T12:01:43.323Z,5.90
2023-05-01T12:06:48.034Z,6.77
2023-05-01T12:11:52.957Z,5.87
2023-05-01T12:16:58.536Z,6.07
2023-05-01T12:22:08.400Z,5.43
2023-05-01T12:27:11.687Z,5.77
2023-05-01T12:32:17.016Z,5.87
2023-05-01T12:37:20.305Z,6.00
2023-05-01T12:42:23.581Z,5.30
2023-05-01T12:47:28.321Z,5.57
2023-05-01T12:52:31.763Z,5.63
2023-05-01T12:57:35.220Z,5.70
2023-05-01T13:02:39.877Z,6.27
2023-05-01T13:07:48.842Z,6.27
2023-05-01T13:12:52.236Z,5.40
2023-05-01T13:18:05.474Z,5.70
2023-05-01T13:23:11.435Z,5.03
2023-05-01T13:28:18.832Z,5.03
2023-05-01T13:33:23.542Z,4.93
2023-05-01T13:38:27.109Z,4.83
2023-05-01T13:43:30.368Z,4.53
2023-05-01T13:48:35.985Z,4.87
2023-05-01T13:53:39.759Z,4.80
2023-05-01T13:58:43.168Z,4.37
2023-05-01T14:03:48.473Z,4.57
2023-05-01T14:08:52.655Z,4.60
2023-05-01T14:13:56.579Z,4.63
2023-05-01T14:19:01.213Z,4.30
2023-05-01T14:24:04.517Z,4.47
2023-05-01T14:29:08.909Z,4.20
2023-05-01T14:34:16.732Z,4.97
2023-05-01T14:39:20.276Z,4.40
2023-05-01T14:44:25.320Z,4.57
2023-05-01T14:49:30.098Z,4.50
2023-05-01T14:54:37.231Z,4.33
2023-05-01T14:59:41.059Z,4.40
2023-05-01T15:04:45.965Z,4.63
2023-05-01T15:09:49.431Z,4.30
2023-05-01T15:14:52.835Z,4.30
2023-05-01T15:19:57.646Z,4.00
2023-05-01T15:25:01.172Z,4.70
2023-05-01T15:30:05.323Z,3.90
2023-05-01T15:35:10.152Z,4.30
2023-05-01T15:40:13.599Z,4.43
2023-05-01T15:45:17.154Z,4.43
2023-05-01T15:50:23.660Z,3.93
2023-05-01T15:55:27.070Z,3.83
2023-05-01T16:00:30.971Z,4.97
2023-05-01T16:05:37.858Z,4.13
2023-05-01T16:10:41.338Z,4.43
2023-05-01T16:15:44.740Z,4.47
2023-05-01T16:20:53.482Z,4.77
2023-05-01T16:25:56.969Z,5.97
2023-05-01T16:31:00.755Z,5.33
2023-05-01T16:36:06.379Z,5.50
2023-05-01T16:41:09.982Z,5.70
2023-05-01T16:46:14.199Z,5.30
2023-05-01T16:51:20.169Z,5.53
2023-05-01T16:56:23.505Z,4.30
2023-05-01T17:01:26.863Z,4.97
2023-05-01T17:06:31.747Z,5.00
2023-05-01T17:11:35.047Z,4.77
2023-05-01T17:16:38.706Z,5.03
2023-05-01T17:21:44.797Z,5.10
2023-05-01T17:26:49.251Z,6.00
2023-05-01T17:31:55.006Z,5.13
2023-05-01T17:37:00.075Z,5.63
2023-05-01T17:42:04.607Z,4.87
2023-05-01T17:47:08.195Z,4.80
2023-05-01T17:52:12.882Z,4.90
2023-05-01T17:57:19.241Z,4.43
2023-05-01T18:03:04.615Z,4.40
2023-05-01T18:08:10.641Z,5.30
2023-05-01T18:13:17.570Z,5.37
2023-05-01T18:18:21.521Z,5.03
2023-05-01T18:23:26.682Z,4.40
2023-05-01T18:28:30.205Z,5.13
2023-05-01T18:33:34.192Z,5.47
2023-05-01T18:38:39.316Z,6.53
2023-05-01T18:43:42.952Z,4.40
2023-05-01T18:48:47.469Z,4.40
2023-05-01T18:53:52.424Z,10.63
2023-05-01T18:58:57.053Z,11.70
2023-05-01T19:04:00.966Z,5.10
2023-05-01T19:09:06.383Z,4.17
2023-05-01T19:14:10.021Z,4.63
2023-05-01T19:19:13.776Z,4.60
2023-05-01T19:24:19.226Z,4.87
2023-05-01T19:29:23.359Z,4.40
2023-05-01T19:34:27.035Z,4.50
2023-05-01T19:39:32.200Z,4.13
2023-05-01T19:44:37.201Z,4.40
2023-05-01T19:49:40.800Z,4.63
2023-05-01T19:54:45.976Z,4.67
2023-05-01T19:59:49.884Z,4.90
2023-05-01T20:04:53.776Z,4.40
2023-05-01T20:09:59.949Z,4.93
2023-05-01T20:15:03.922Z,5.47
2023-05-01T20:20:08.010Z,4.97
2023-05-01T20:25:13.608Z,4.93
2023-05-01T20:30:18.368Z,4.77
2023-05-01T20:35:21.841Z,4.87
2023-05-01T20:40:27.027Z,4.97
2023-05-01T20:45:31.018Z,5.03
2023-05-01T20:50:35.688Z,5.50
2023-05-01T20:55:41.085Z,5.30
2023-05-01T21:00:44.555Z,5.63
2023-05-01T21:05:48.320Z,5.27
2023-05-01T21:10:54.621Z,5.70
2023-05-01T21:15:59.103Z,7.23
2023-05-01T21:21:03.821Z,9.27
2023-05-01T21:26:08.879Z,10.20
2023-05-01T21:31:13.311Z,9.43
2023-05-01T21:36:18.566Z,8.67
2023-05-01T21:41:23.733Z,9.33
2023-05-01T21:46:27.365Z,8.93
2023-05-01T21:51:31.970Z,9.17
2023-05-01T21:56:37.027Z,8.70
2023-05-01T22:01:41.417Z,9.83
2023-05-01T22:06:45.905Z,9.27
2023-05-01T22:11:50.943Z,9.47
2023-05-01T22:16:54.634Z,8.40
2023-05-01T22:21:58.347Z,7.40
2023-05-01T22:27:03.962Z,7.13
2023-05-01T22:32:08.190Z,6.70
2023-05-01T22:37:12.176Z,6.70
2023-05-01T22:42:17.509Z,6.57
2023-05-01T22:47:21.385Z,6.27
2023-05-01T22:52:25.065Z,6.90
2023-05-01T22:57:30.174Z,6.70
2023-05-01T23:02:34.420Z,7.40
2023-05-01T23:07:38.493Z,6.63
2023-05-01T23:12:44.429Z,6.60
2023-05-01T23:17:48.196Z,6.90
2023-05-01T23:22:51.698Z,7.00
2023-05-01T23:27:57.208Z,6.60
2023-05-01T23:33:00.936Z,6.20
2023-05-01T23:38:04.678Z,7.67
2023-05-01T23:43:09.975Z,7.10
2023-05-01T23:48:14.940Z,7.37
2023-05-01T23:53:18.628Z,7.97
2023-05-01T23:58:23.755Z,7.90
